sensor_id;sensor_type;location;lat;lon;timestamp;pressure;altitude;pressure_sealevel;temperature;humidity
63088;BME280;49173;43.164;27.786;2023-04-19T00:01:02;99981.69;;;12.27;91.37
63088;BME280;49173;43.164;27.786;2023-04-19T00:03:28;99976.41;;;12.26;91.43
63088;BME280;49173;43.164;27.786;2023-04-19T00:05:55;99988.13;;;12.25;91.48
63088;BME280;49173;43.164;27.786;2023-04-19T00:08:24;99974.91;;;12.22;91.33
63088;BME280;49173;43.164;27.786;2023-04-19T00:10:51;99967.81;;;12.21;91.46
63088;BME280;49173;43.164;27.786;2023-04-19T00:13:16;99975.75;;;12.22;91.84
63088;BME280;49173;43.164;27.786;2023-04-19T00:15:42;99969.63;;;12.20;91.73
63088;BME280;49173;43.164;27.786;2023-04-19T00:18:08;99974.22;;;12.18;91.75
63088;BME280;49173;43.164;27.786;2023-04-19T00:20:34;99965.22;;;12.19;91.77
63088;BME280;49173;43.164;27.786;2023-04-19T00:23:01;99958.94;;;12.19;91.59
63088;BME280;49173;43.164;27.786;2023-04-19T00:25:28;99971.47;;;12.20;91.76
63088;BME280;49173;43.164;27.786;2023-04-19T00:27:56;99967.03;;;12.19;91.89
63088;BME280;49173;43.164;27.786;2023-04-19T00:30:22;99962.59;;;12.18;91.73
63088;BME280;49173;43.164;27.786;2023-04-19T00:32:48;99962.53;;;12.19;91.75
63088;BME280;49173;43.164;27.786;2023-04-19T00:35:14;99971.53;;;12.18;91.84
63088;BME280;49173;43.164;27.786;2023-04-19T00:37:40;99959.28;;;12.14;91.77
63088;BME280;49173;43.164;27.786;2023-04-19T00:40:06;99963.03;;;12.12;92.08
63088;BME280;49173;43.164;27.786;2023-04-19T00:42:32;99969.38;;;12.10;92.14
63088;BME280;49173;43.164;27.786;2023-04-19T00:44:58;99962.28;;;12.09;92.21
63088;BME280;49173;43.164;27.786;2023-04-19T00:47:23;99965.81;;;12.10;92.51
63088;BME280;49173;43.164;27.786;2023-04-19T00:49:50;99961.53;;;12.07;92.80
63088;BME280;49173;43.164;27.786;2023-04-19T00:52:15;99964.31;;;12.06;93.13
63088;BME280;49173;43.164;27.786;2023-04-19T00:54:42;99968.06;;;12.03;93.00
63088;BME280;49173;43.164;27.786;2023-04-19T00:57:09;99959.34;;;12.00;93.33
63088;BME280;49173;43.164;27.786;2023-04-19T00:59:35;99959.13;;;12.03;93.53
63088;BME280;49173;43.164;27.786;2023-04-19T01:02:02;99961.06;;;12.01;93.43
63088;BME280;49173;43.164;27.786;2023-04-19T01:04:28;99961.25;;;11.98;93.76
63088;BME280;49173;43.164;27.786;2023-04-19T01:06:54;99963.09;;;11.97;93.88
63088;BME280;49173;43.164;27.786;2023-04-19T01:09:20;99967.59;;;11.97;93.13
63088;BME280;49173;43.164;27.786;2023-04-19T01:11:46;99957.06;;;11.94;93.38
63088;BME280;49173;43.164;27.786;2023-04-19T01:14:12;99960.72;;;11.93;93.11
63088;BME280;49173;43.164;27.786;2023-04-19T01:16:38;99954.56;;;11.91;93.56
63088;BME280;49173;43.164;27.786;2023-04-19T01:19:04;99948.34;;;11.90;93.57
63088;BME280;49173;43.164;27.786;2023-04-19T01:21:30;99947.47;;;11.90;93.73
63088;BME280;49173;43.164;27.786;2023-04-19T01:23:56;99949.19;;;11.91;93.95
63088;BME280;49173;43.164;27.786;2023-04-19T01:26:23;99943.81;;;11.91;94.16
63088;BME280;49173;43.164;27.786;2023-04-19T01:28:50;99937.69;;;11.89;94.32
63088;BME280;49173;43.164;27.786;2023-04-19T01:31:16;99936.94;;;11.87;94.49
63088;BME280;49173;43.164;27.786;2023-04-19T01:33:41;99941.22;;;11.89;94.28
63088;BME280;49173;43.164;27.786;2023-04-19T01:36:07;99938.44;;;11.91;94.06
63088;BME280;49173;43.164;27.786;2023-04-19T01:38:33;99943.19;;;11.87;94.22
63088;BME280;49173;43.164;27.786;2023-04-19T01:40:59;99926.19;;;11.87;94.60
63088;BME280;49173;43.164;27.786;2023-04-19T01:43:25;99938.88;;;11.85;94.85
63088;BME280;49173;43.164;27.786;2023-04-19T01:45:51;99934.34;;;11.85;95.17
63088;BME280;49173;43.164;27.786;2023-04-19T01:48:17;99935.22;;;11.86;95.20
63088;BME280;49173;43.164;27.786;2023-04-19T01:50:43;99929.28;;;11.80;95.02
63088;BME280;49173;43.164;27.786;2023-04-19T01:53:08;99934.66;;;11.80;95.03
63088;BME280;49173;43.164;27.786;2023-04-19T01:55:34;99928.31;;;11.81;95.27
63088;BME280;49173;43.164;27.786;2023-04-19T01:58:00;99936.25;;;11.83;95.24
63088;BME280;49173;43.164;27.786;2023-04-19T02:00:26;99940.22;;;11.77;95.40
63088;BME280;49173;43.164;27.786;2023-04-19T02:02:52;99928.59;;;11.77;95.60
63088;BME280;49173;43.164;27.786;2023-04-19T02:05:18;99937.34;;;11.80;95.75
63088;BME280;49173;43.164;27.786;2023-04-19T02:07:43;99935.59;;;11.79;96.00
63088;BME280;49173;43.164;27.786;2023-04-19T02:10:10;99930.03;;;11.82;95.99
63088;BME280;49173;43.164;27.786;2023-04-19T02:12:36;99931.75;;;11.83;95.95
63088;BME280;49173;43.164;27.786;2023-04-19T02:15:03;99931.75;;;11.83;96.02
63088;BME280;49173;43.164;27.786;2023-04-19T02:17:29;99931.00;;;11.81;95.96
63088;BME280;49173;43.164;27.786;2023-04-19T02:19:55;99931.84;;;11.82;96.16
63088;BME280;49173;43.164;27.786;2023-04-19T02:22:21;99915.63;;;11.83;96.04
63088;BME280;49173;43.164;27.786;2023-04-19T02:24:48;99918.31;;;11.83;96.17
63088;BME280;49173;43.164;27.786;2023-04-19T02:27:15;99924.47;;;11.86;95.65
63088;BME280;49173;43.164;27.786;2023-04-19T02:29:41;99919.19;;;11.84;95.47
63088;BME280;49173;43.164;27.786;2023-04-19T02:32:07;99918.00;;;11.88;95.75
63088;BME280;49173;43.164;27.786;2023-04-19T02:34:33;99913.38;;;11.90;95.93
63088;BME280;49173;43.164;27.786;2023-04-19T02:36:59;99915.31;;;11.88;96.18
63088;BME280;49173;43.164;27.786;2023-04-19T02:39:25;99912.63;;;11.88;96.31
63088;BME280;49173;43.164;27.786;2023-04-19T02:41:51;99917.16;;;11.88;96.32
63088;BME280;49173;43.164;27.786;2023-04-19T02:44:17;99912.50;;;11.90;96.43
63088;BME280;49173;43.164;27.786;2023-04-19T02:46:52;99917.16;;;11.88;96.37
63088;BME280;49173;43.164;27.786;2023-04-19T02:49:19;99909.19;;;11.86;96.32
63088;BME280;49173;43.164;27.786;2023-04-19T02:51:45;99904.78;;;11.85;96.65
63088;BME280;49173;43.164;27.786;2023-04-19T02:54:12;99910.03;;;11.87;96.97
63088;BME280;49173;43.164;27.786;2023-04-19T02:56:38;99914.44;;;11.88;96.69
63088;BME280;49173;43.164;27.786;2023-04-19T02:59:04;99909.81;;;11.90;96.75
63088;BME280;49173;43.164;27.786;2023-04-19T03:01:30;99909.94;;;11.88;96.73
63088;BME280;49173;43.164;27.786;2023-04-19T03:03:56;99906.38;;;11.88;96.83
63088;BME280;49173;43.164;27.786;2023-04-19T03:06:22;99910.91;;;11.87;97.01
63088;BME280;49173;43.164;27.786;2023-04-19T03:08:48;99910.91;;;11.87;97.21
63088;BME280;49173;43.164;27.786;2023-04-19T03:11:15;99914.34;;;11.89;97.19
63088;BME280;49173;43.164;27.786;2023-04-19T03:13:42;99915.19;;;11.90;97.06
63088;BME280;49173;43.164;27.786;2023-04-19T03:16:08;99915.13;;;11.91;97.08
63088;BME280;49173;43.164;27.786;2023-04-19T03:18:34;99914.03;;;11.94;97.32
63088;BME280;49173;43.164;27.786;2023-04-19T03:21:01;99912.31;;;11.93;97.27
63088;BME280;49173;43.164;27.786;2023-04-19T03:23:27;99903.59;;;11.89;97.50
63088;BME280;49173;43.164;27.786;2023-04-19T03:25:53;99910.91;;;11.87;97.65
63088;BME280;49173;43.164;27.786;2023-04-19T03:28:19;99909.81;;;11.90;98.12
63088;BME280;49173;43.164;27.786;2023-04-19T03:30:44;99907.25;;;11.88;98.07
63088;BME280;49173;43.164;27.786;2023-04-19T03:33:10;99902.53;;;11.92;97.80
63088;BME280;49173;43.164;27.786;2023-04-19T03:35:36;99902.63;;;11.90;97.84
63088;BME280;49173;43.164;27.786;2023-04-19T03:38:02;99906.16;;;11.91;98.19
63088;BME280;49173;43.164;27.786;2023-04-19T03:40:31;99902.44;;;11.93;97.96
63088;BME280;49173;43.164;27.786;2023-04-19T03:42:57;99905.13;;;11.93;97.80
63088;BME280;49173;43.164;27.786;2023-04-19T03:45:23;99904.38;;;11.91;97.78
63088;BME280;49173;43.164;27.786;2023-04-19T03:47:49;99902.72;;;11.89;98.00
63088;BME280;49173;43.164;27.786;2023-04-19T03:50:15;99907.13;;;11.90;97.88
63088;BME280;49173;43.164;27.786;2023-04-19T03:52:40;99907.13;;;11.90;98.02
63088;BME280;49173;43.164;27.786;2023-04-19T03:55:07;99907.25;;;11.88;98.32
63088;BME280;49173;43.164;27.786;2023-04-19T03:57:33;99901.75;;;11.90;97.89
63088;BME280;49173;43.164;27.786;2023-04-19T03:59:59;99912.31;;;11.93;97.91
63088;BME280;49173;43.164;27.786;2023-04-19T04:02:24;99910.38;;;11.95;97.79
63088;BME280;49173;43.164;27.786;2023-04-19T04:04:54;99908.97;;;11.89;98.01
63088;BME280;49173;43.164;27.786;2023-04-19T04:07:20;99904.97;;;11.82;97.66
63088;BME280;49173;43.164;27.786;2023-04-19T04:09:48;99910.25;;;11.83;97.97
63088;BME280;49173;43.164;27.786;2023-04-19T04:12:14;99907.47;;;11.85;97.71
63088;BME280;49173;43.164;27.786;2023-04-19T04:14:40;99917.25;;;11.86;97.59
63088;BME280;49173;43.164;27.786;2023-04-19T04:17:05;99915.53;;;11.85;97.89
63088;BME280;49173;43.164;27.786;2023-04-19T04:19:32;99911.75;;;11.88;97.91
63088;BME280;49173;43.164;27.786;2023-04-19T04:21:57;99912.84;;;11.85;97.93
63088;BME280;49173;43.164;27.786;2023-04-19T04:24:23;99908.09;;;11.89;97.69
63088;BME280;49173;43.164;27.786;2023-04-19T04:26:49;99907.34;;;11.87;97.97
63088;BME280;49173;43.164;27.786;2023-04-19T04:29:16;99911.75;;;11.88;98.00
63088;BME280;49173;43.164;27.786;2023-04-19T04:31:42;99912.75;;;11.87;98.18
63088;BME280;49173;43.164;27.786;2023-04-19T04:34:08;99906.50;;;11.86;98.26
63088;BME280;49173;43.164;27.786;2023-04-19T04:36:34;99907.34;;;11.87;98.20
63088;BME280;49173;43.164;27.786;2023-04-19T04:39:03;99912.84;;;11.85;98.17
63088;BME280;49173;43.164;27.786;2023-04-19T04:41:29;99915.44;;;11.87;98.18
63088;BME280;49173;43.164;27.786;2023-04-19T04:43:56;99915.31;;;11.88;98.31
63088;BME280;49173;43.164;27.786;2023-04-19T04:46:23;99914.34;;;11.89;98.46
63088;BME280;49173;43.164;27.786;2023-04-19T04:48:51;99912.50;;;11.90;98.32
63088;BME280;49173;43.164;27.786;2023-04-19T04:51:17;99915.97;;;11.92;98.56
63088;BME280;49173;43.164;27.786;2023-04-19T04:53:43;99912.84;;;11.85;98.57
63088;BME280;49173;43.164;27.786;2023-04-19T04:56:08;99915.44;;;11.87;98.82
63088;BME280;49173;43.164;27.786;2023-04-19T04:58:34;99915.19;;;11.90;98.34
63088;BME280;49173;43.164;27.786;2023-04-19T05:01:00;99913.50;;;11.89;98.78
63088;BME280;49173;43.164;27.786;2023-04-19T05:03:26;99913.59;;;11.87;98.74
63088;BME280;49173;43.164;27.786;2023-04-19T05:05:52;99928.56;;;11.91;98.67
63088;BME280;49173;43.164;27.786;2023-04-19T05:08:17;99927.59;;;11.92;98.92
63088;BME280;49173;43.164;27.786;2023-04-19T05:10:43;99927.03;;;11.87;99.36
63088;BME280;49173;43.164;27.786;2023-04-19T05:13:09;99924.47;;;11.86;99.52
63088;BME280;49173;43.164;27.786;2023-04-19T05:15:36;99928.13;;;11.85;100.00
63088;BME280;49173;43.164;27.786;2023-04-19T05:18:02;99926.28;;;11.85;99.86
63088;BME280;49173;43.164;27.786;2023-04-19T05:20:28;99927.16;;;11.86;100.00
63088;BME280;49173;43.164;27.786;2023-04-19T05:22:58;99927.91;;;11.88;100.00
63088;BME280;49173;43.164;27.786;2023-04-19T05:25:26;99933.28;;;11.88;99.87
63088;BME280;49173;43.164;27.786;2023-04-19T05:27:51;99935.22;;;11.86;99.88
63088;BME280;49173;43.164;27.786;2023-04-19T05:30:17;99927.25;;;11.84;100.00
63088;BME280;49173;43.164;27.786;2023-04-19T05:32:44;99936.81;;;11.88;99.95
63088;BME280;49173;43.164;27.786;2023-04-19T05:35:12;99940.06;;;11.93;99.69
63088;BME280;49173;43.164;27.786;2023-04-19T05:37:40;99933.06;;;11.91;99.73
63088;BME280;49173;43.164;27.786;2023-04-19T05:40:06;99943.75;;;11.92;99.62
63088;BME280;49173;43.164;27.786;2023-04-19T05:42:37;99935.66;;;11.92;99.46
63088;BME280;49173;43.164;27.786;2023-04-19T05:45:04;99940.81;;;11.95;99.81
63088;BME280;49173;43.164;27.786;2023-04-19T05:47:32;99935.34;;;11.97;99.61
63088;BME280;49173;43.164;27.786;2023-04-19T05:50:01;99944.06;;;12.00;99.74
63088;BME280;49173;43.164;27.786;2023-04-19T05:52:29;99943.84;;;12.03;99.18
63088;BME280;49173;43.164;27.786;2023-04-19T05:54:57;99943.00;;;12.03;99.23
63088;BME280;49173;43.164;27.786;2023-04-19T05:57:23;99942.13;;;12.02;99.41
63088;BME280;49173;43.164;27.786;2023-04-19T05:59:50;99943.09;;;12.01;99.47
63088;BME280;49173;43.164;27.786;2023-04-19T06:02:20;99941.16;;;12.03;99.65
63088;BME280;49173;43.164;27.786;2023-04-19T06:04:48;99941.94;;;12.05;99.80
63088;BME280;49173;43.164;27.786;2023-04-19T06:07:15;99940.88;;;12.08;100.00
63088;BME280;49173;43.164;27.786;2023-04-19T06:09:42;99938.38;;;12.05;99.76
63088;BME280;49173;43.164;27.786;2023-04-19T06:12:08;99940.88;;;12.08;99.86
63088;BME280;49173;43.164;27.786;2023-04-19T06:14:36;99940.88;;;12.08;99.46
63088;BME280;49173;43.164;27.786;2023-04-19T06:17:03;99948.72;;;12.11;98.85
63088;BME280;49173;43.164;27.786;2023-04-19T06:19:29;99941.41;;;12.13;98.44
63088;BME280;49173;43.164;27.786;2023-04-19T06:21:59;99946.81;;;12.13;97.61
63088;BME280;49173;43.164;27.786;2023-04-19T06:24:27;99950.34;;;12.14;97.11
63088;BME280;49173;43.164;27.786;2023-04-19T06:26:56;99947.56;;;12.15;96.69
63088;BME280;49173;43.164;27.786;2023-04-19T06:29:22;99956.19;;;12.20;96.22
63088;BME280;49173;43.164;27.786;2023-04-19T06:31:49;99949.72;;;12.23;96.61
63088;BME280;49173;43.164;27.786;2023-04-19T06:34:17;99956.81;;;12.24;96.19
63088;BME280;49173;43.164;27.786;2023-04-19T06:36:44;99957.47;;;12.27;95.89
63088;BME280;49173;43.164;27.786;2023-04-19T06:39:10;99959.19;;;12.28;96.08
63088;BME280;49173;43.164;27.786;2023-04-19T06:41:37;99960.63;;;12.34;96.34
63088;BME280;49173;43.164;27.786;2023-04-19T06:44:03;99960.28;;;12.38;96.47
63088;BME280;49173;43.164;27.786;2023-04-19T06:46:33;99965.88;;;12.35;96.11
63088;BME280;49173;43.164;27.786;2023-04-19T06:49:00;99969.56;;;12.34;96.22
63088;BME280;49173;43.164;27.786;2023-04-19T06:51:27;99968.78;;;12.32;96.33
63088;BME280;49173;43.164;27.786;2023-04-19T06:53:54;99961.78;;;12.30;95.75
63088;BME280;49173;43.164;27.786;2023-04-19T06:56:41;99967.06;;;12.31;95.35
63088;BME280;49173;43.164;27.786;2023-04-19T06:59:18;99970.59;;;12.32;95.19
63088;BME280;49173;43.164;27.786;2023-04-19T07:01:45;99973.22;;;12.33;94.83
63088;BME280;49173;43.164;27.786;2023-04-19T07:04:12;99970.53;;;12.33;95.02
63088;BME280;49173;43.164;27.786;2023-04-19T07:06:39;99974.94;;;12.34;95.27
63088;BME280;49173;43.164;27.786;2023-04-19T07:09:13;99978.91;;;12.29;94.75
63088;BME280;49173;43.164;27.786;2023-04-19T07:11:40;99981.44;;;12.18;94.86
63088;BME280;49173;43.164;27.786;2023-04-19T07:14:06;99983.28;;;12.17;95.39
63088;BME280;49173;43.164;27.786;2023-04-19T07:16:33;99985.84;;;12.19;95.55
63088;BME280;49173;43.164;27.786;2023-04-19T07:19:00;99986.81;;;12.18;95.26
63088;BME280;49173;43.164;27.786;2023-04-19T07:21:28;99980.59;;;12.17;95.47
63088;BME280;49173;43.164;27.786;2023-04-19T07:23:58;99994.03;;;12.17;95.62
63088;BME280;49173;43.164;27.786;2023-04-19T07:26:25;99989.72;;;12.15;95.75
63088;BME280;49173;43.164;27.786;2023-04-19T07:28:51;99992.31;;;12.16;95.45
63088;BME280;49173;43.164;27.786;2023-04-19T07:31:18;99999.41;;;12.17;95.28
63088;BME280;49173;43.164;27.786;2023-04-19T07:33:49;99999.41;;;12.17;94.99
63088;BME280;49173;43.164;27.786;2023-04-19T07:36:15;100003.06;;;12.16;95.42
63088;BME280;49173;43.164;27.786;2023-04-19T07:38:41;99995.22;;;12.13;95.33
63088;BME280;49173;43.164;27.786;2023-04-19T07:41:08;99998.84;;;12.12;95.16
63088;BME280;49173;43.164;27.786;2023-04-19T07:43:35;100003.47;;;12.10;95.29
63088;BME280;49173;43.164;27.786;2023-04-19T07:46:11;100002.63;;;12.09;95.39
63088;BME280;49173;43.164;27.786;2023-04-19T07:48:38;100007.44;;;12.04;95.35
63088;BME280;49173;43.164;27.786;2023-04-19T07:51:15;100001.31;;;12.02;95.42
63088;BME280;49173;43.164;27.786;2023-04-19T07:53:46;100007.53;;;12.03;95.41
63088;BME280;49173;43.164;27.786;2023-04-19T07:56:14;100004.97;;;12.01;95.44
63088;BME280;49173;43.164;27.786;2023-04-19T07:58:40;100016.69;;;12.00;95.59
63088;BME280;49173;43.164;27.786;2023-04-19T08:01:08;100014.00;;;12.00;95.23
63088;BME280;49173;43.164;27.786;2023-04-19T08:03:36;100015.72;;;12.01;95.68
63088;BME280;49173;43.164;27.786;2023-04-19T08:06:04;100010.47;;;12.00;95.80
63088;BME280;49173;43.164;27.786;2023-04-19T08:08:37;100016.81;;;11.99;95.69
63088;BME280;49173;43.164;27.786;2023-04-19T08:11:04;100015.63;;;12.03;96.29
63088;BME280;49173;43.164;27.786;2023-04-19T08:13:33;100015.50;;;12.04;96.40
63088;BME280;49173;43.164;27.786;2023-04-19T08:16:00;100015.50;;;12.04;96.61
63088;BME280;49173;43.164;27.786;2023-04-19T08:18:28;100017.44;;;12.02;96.90
63088;BME280;49173;43.164;27.786;2023-04-19T08:20:55;100017.34;;;12.04;97.18
63088;BME280;49173;43.164;27.786;2023-04-19T08:23:23;100022.63;;;12.05;97.27
63088;BME280;49173;43.164;27.786;2023-04-19T08:25:50;100027.06;;;12.06;97.30
63088;BME280;49173;43.164;27.786;2023-04-19T08:28:18;100023.28;;;12.09;97.06
63088;BME280;49173;43.164;27.786;2023-04-19T08:30:45;100026.66;;;12.13;97.25
63088;BME280;49173;43.164;27.786;2023-04-19T08:33:11;100029.97;;;12.16;97.31
63088;BME280;49173;43.164;27.786;2023-04-19T08:35:38;100019.03;;;12.19;97.46
63088;BME280;49173;43.164;27.786;2023-04-19T08:38:10;100024.19;;;12.22;97.53
63088;BME280;49173;43.164;27.786;2023-04-19T08:40:42;100020.75;;;12.20;97.83
63088;BME280;49173;43.164;27.786;2023-04-19T08:43:12;100022.47;;;12.21;97.20
63088;BME280;49173;43.164;27.786;2023-04-19T08:45:42;100028.50;;;12.25;97.57
63088;BME280;49173;43.164;27.786;2023-04-19T08:48:11;100022.91;;;12.28;98.01
63088;BME280;49173;43.164;27.786;2023-04-19T08:50:46;100028.09;;;12.31;98.21
63088;BME280;49173;43.164;27.786;2023-04-19T08:53:14;100026.13;;;12.33;98.21
63088;BME280;49173;43.164;27.786;2023-04-19T08:55:44;100026.81;;;12.36;98.01
63088;BME280;49173;43.164;27.786;2023-04-19T08:58:15;100017.75;;;12.37;97.82
63088;BME280;49173;43.164;27.786;2023-04-19T09:00:44;100026.69;;;12.38;97.00
63088;BME280;49173;43.164;27.786;2023-04-19T09:03:11;100026.69;;;12.38;96.79
63088;BME280;49173;43.164;27.786;2023-04-19T09:05:41;100027.56;;;12.38;96.26
63088;BME280;49173;43.164;27.786;2023-04-19T09:08:29;100026.81;;;12.36;96.71
63088;BME280;49173;43.164;27.786;2023-04-19T09:10:57;100024.00;;;12.38;96.11
63088;BME280;49173;43.164;27.786;2023-04-19T09:13:34;100034.88;;;12.36;95.68
63088;BME280;49173;43.164;27.786;2023-04-19T09:16:05;100035.63;;;12.38;95.81
63088;BME280;49173;43.164;27.786;2023-04-19T09:18:55;100027.44;;;12.40;96.18
63088;BME280;49173;43.164;27.786;2023-04-19T09:21:29;100033.63;;;12.42;96.31
63088;BME280;49173;43.164;27.786;2023-04-19T09:23:56;100028.13;;;12.44;95.86
63088;BME280;49173;43.164;27.786;2023-04-19T09:26:23;100032.34;;;12.48;95.79
63088;BME280;49173;43.164;27.786;2023-04-19T09:28:58;100028.44;;;12.52;95.13
63088;BME280;49173;43.164;27.786;2023-04-19T09:31:28;100023.63;;;12.57;94.82
63088;BME280;49173;43.164;27.786;2023-04-19T09:36:37;100025.78;;;12.64;96.21
63088;BME280;49173;43.164;27.786;2023-04-19T09:39:04;100031.81;;;12.68;96.68
63088;BME280;49173;43.164;27.786;2023-04-19T09:41:31;100027.31;;;12.69;95.53
63088;BME280;49173;43.164;27.786;2023-04-19T09:44:09;100021.69;;;12.72;94.45
63088;BME280;49173;43.164;27.786;2023-04-19T09:46:37;100027.09;;;12.72;94.00
63088;BME280;49173;43.164;27.786;2023-04-19T09:49:16;100030.53;;;12.74;93.53
63088;BME280;49173;43.164;27.786;2023-04-19T09:51:52;100035.72;;;12.77;93.91
63088;BME280;49173;43.164;27.786;2023-04-19T09:54:28;100030.97;;;12.80;94.37
63088;BME280;49173;43.164;27.786;2023-04-19T09:57:01;100027.22;;;12.83;94.68
63088;BME280;49173;43.164;27.786;2023-04-19T09:59:28;100037.09;;;12.82;93.92
63088;BME280;49173;43.164;27.786;2023-04-19T10:01:55;100030.97;;;12.80;93.67
63088;BME280;49173;43.164;27.786;2023-04-19T10:04:21;100038.06;;;12.81;93.79
63088;BME280;49173;43.164;27.786;2023-04-19T10:06:52;100033.34;;;12.85;94.04
63088;BME280;49173;43.164;27.786;2023-04-19T10:09:20;100033.22;;;12.86;93.96
63088;BME280;49173;43.164;27.786;2023-04-19T10:11:51;100025.81;;;12.90;93.49
63088;BME280;49173;43.164;27.786;2023-04-19T10:14:24;100029.25;;;12.92;93.12
63088;BME280;49173;43.164;27.786;2023-04-19T10:16:53;100030.31;;;12.89;92.71
63088;BME280;49173;43.164;27.786;2023-04-19T10:19:20;100025.47;;;12.95;92.15
63088;BME280;49173;43.164;27.786;2023-04-19T10:21:50;100020.94;;;12.95;91.41
63088;BME280;49173;43.164;27.786;2023-04-19T10:24:19;100025.38;;;12.96;91.48
63088;BME280;49173;43.164;27.786;2023-04-19T10:27:14;100023.00;;;12.91;90.51
63088;BME280;49173;43.164;27.786;2023-04-19T10:29:54;100031.63;;;12.84;90.54
63088;BME280;49173;43.164;27.786;2023-04-19T10:32:20;100029.69;;;12.86;90.79
63088;BME280;49173;43.164;27.786;2023-04-19T10:34:47;100027.75;;;12.88;91.18
63088;BME280;49173;43.164;27.786;2023-04-19T10:37:16;100030.22;;;12.91;91.26
63088;BME280;49173;43.164;27.786;2023-04-19T10:39:43;100030.13;;;12.92;91.09
63088;BME280;49173;43.164;27.786;2023-04-19T10:42:10;100037.22;;;12.93;90.63
63088;BME280;49173;43.164;27.786;2023-04-19T10:44:39;100036.13;;;12.96;90.38
63088;BME280;49173;43.164;27.786;2023-04-19T10:47:05;100037.88;;;12.97;90.14
63088;BME280;49173;43.164;27.786;2023-04-19T10:49:46;100035.50;;;12.92;90.15
63088;BME280;49173;43.164;27.786;2023-04-19T10:52:42;100030.75;;;12.96;90.82
63088;BME280;49173;43.164;27.786;2023-04-19T10:55:17;100029.47;;;13.02;90.80
63088;BME280;49173;43.164;27.786;2023-04-19T10:58:04;100025.72;;;13.04;90.88
63088;BME280;49173;43.164;27.786;2023-04-19T11:00:49;100032.16;;;13.02;91.31
63088;BME280;49173;43.164;27.786;2023-04-19T11:06:18;100029.03;;;13.08;91.54
63088;BME280;49173;43.164;27.786;2023-04-19T11:08:52;100035.94;;;13.12;91.61
63088;BME280;49173;43.164;27.786;2023-04-19T11:11:20;100032.91;;;13.16;92.27
63088;BME280;49173;43.164;27.786;2023-04-19T11:13:47;100032.63;;;13.21;92.35
63088;BME280;49173;43.164;27.786;2023-04-19T11:16:13;100030.00;;;13.19;91.62
63088;BME280;49173;43.164;27.786;2023-04-19T11:18:40;100033.75;;;13.17;90.97
63088;BME280;49173;43.164;27.786;2023-04-19T11:21:12;100036.25;;;13.07;89.78
63088;BME280;49173;43.164;27.786;2023-04-19T11:23:40;100030.97;;;13.06;89.95
63088;BME280;49173;43.164;27.786;2023-04-19T11:26:11;100033.88;;;13.03;89.86
63088;BME280;49173;43.164;27.786;2023-04-19T11:28:38;100033.34;;;12.98;89.61
63088;BME280;49173;43.164;27.786;2023-04-19T11:31:05;100038.94;;;12.95;89.75
63088;BME280;49173;43.164;27.786;2023-04-19T11:33:37;100036.69;;;12.88;89.70
63088;BME280;49173;43.164;27.786;2023-04-19T11:36:11;100030.75;;;12.71;88.38
63088;BME280;49173;43.164;27.786;2023-04-19T11:38:39;100038.47;;;12.50;88.47
63088;BME280;49173;43.164;27.786;2023-04-19T11:41:06;100038.81;;;12.18;88.89
63088;BME280;49173;43.164;27.786;2023-04-19T11:43:37;100031.09;;;11.99;89.64
63088;BME280;49173;43.164;27.786;2023-04-19T11:46:10;100034.50;;;11.89;90.63
63088;BME280;49173;43.164;27.786;2023-04-19T11:49:00;100031.06;;;11.87;91.60
63088;BME280;49173;43.164;27.786;2023-04-19T11:51:28;100028.53;;;11.83;91.76
63088;BME280;49173;43.164;27.786;2023-04-19T11:53:54;100026.63;;;11.86;92.84
63088;BME280;49173;43.164;27.786;2023-04-19T11:56:22;100030.19;;;11.86;92.52
63088;BME280;49173;43.164;27.786;2023-04-19T11:58:50;100028.25;;;11.88;92.88
63088;BME280;49173;43.164;27.786;2023-04-19T12:01:20;100026.38;;;12.03;93.14
63088;BME280;49173;43.164;27.786;2023-04-19T12:03:58;100029.22;;;12.14;92.22
63088;BME280;49173;43.164;27.786;2023-04-19T12:06:28;100032.78;;;12.15;92.05
63088;BME280;49173;43.164;27.786;2023-04-19T12:09:05;100023.06;;;12.12;92.25
63088;BME280;49173;43.164;27.786;2023-04-19T12:11:45;100027.00;;;12.21;91.97
63088;BME280;49173;43.164;27.786;2023-04-19T12:14:19;100022.75;;;12.17;90.18
63088;BME280;49173;43.164;27.786;2023-04-19T12:17:10;100021.91;;;12.16;91.50
63088;BME280;49173;43.164;27.786;2023-04-19T12:19:41;100015.91;;;12.25;91.69
63088;BME280;49173;43.164;27.786;2023-04-19T12:22:12;100011.38;;;12.26;90.93
63088;BME280;49173;43.164;27.786;2023-04-19T12:24:39;100023.38;;;12.34;90.77
63088;BME280;49173;43.164;27.786;2023-04-19T12:27:06;100000.31;;;12.30;90.06
63088;BME280;49173;43.164;27.786;2023-04-19T12:29:33;100002.03;;;12.31;90.38
63088;BME280;49173;43.164;27.786;2023-04-19T12:32:03;100008.31;;;12.45;91.01
63088;BME280;49173;43.164;27.786;2023-04-19T12:34:29;99992.59;;;12.51;90.15
63088;BME280;49173;43.164;27.786;2023-04-19T12:36:58;99994.13;;;12.68;91.53
63088;BME280;49173;43.164;27.786;2023-04-19T12:39:27;100002.63;;;12.75;90.10
63088;BME280;49173;43.164;27.786;2023-04-19T12:41:56;99996.69;;;12.82;90.36
63088;BME280;49173;43.164;27.786;2023-04-19T12:44:22;99991.56;;;12.92;89.79
63088;BME280;49173;43.164;27.786;2023-04-19T12:46:50;100001.22;;;12.95;89.29
63088;BME280;49173;43.164;27.786;2023-04-19T12:49:17;99992.19;;;12.96;87.66
63088;BME280;49173;43.164;27.786;2023-04-19T12:51:46;99994.78;;;12.97;88.22
63088;BME280;49173;43.164;27.786;2023-04-19T12:54:16;99991.56;;;13.05;88.85
63088;BME280;49173;43.164;27.786;2023-04-19T12:56:42;99981.19;;;13.11;87.25